Time;durP1;ratioP1;P1;durP2;ratioP2;P2;SDS_P1;SDS_P2;PMS_P1;PMS_P2;Temp;Humidity;BMP_temperature;BMP_pressure;BME280_temperature;BME280_humidity;BME280_pressure;Samples;Min_cycle;Max_cycle;Signal;HPM_P1;HPM_P2
2022/02/06 00:01:11;;;;;;;1999.90;999.90;;;;;;;3.79;100.00;99844.03;5035956;28;20064;-81
2022/02/06 00:03:44;;;;;;;1999.90;999.90;;;;;;;3.83;100.00;99845.16;5032381;28;20060;-82
2022/02/06 00:06:18;;;;;;;1999.90;999.90;;;;;;;3.81;100.00;99842.72;5026384;28;20056;-81
2022/02/06 00:08:51;;;;;;;1999.90;999.90;;;;;;;3.85;100.00;99833.06;5030105;28;20053;-82
2022/02/06 00:11:19;;;;;;;1999.90;999.90;;;;;;;3.85;100.00;99833.06;5035017;28;20080;-82
2022/02/06 00:13:55;;;;;;;1999.90;999.90;;;;;;;3.77;100.00;99824.63;5035094;28;20061;-81
2022/02/06 00:16:23;;;;;;;1999.90;999.90;;;;;;;3.88;100.00;99811.03;5065363;28;20072;-81
2022/02/06 00:18:57;;;;;;;1999.90;999.90;;;;;;;3.90;100.00;99821.53;5039379;28;20052;-81
2022/02/06 00:21:32;;;;;;;1999.90;999.90;;;;;;;3.88;100.00;99812.88;5039615;28;20041;-81
2022/02/06 00:24:09;;;;;;;1999.90;999.90;;;;;;;3.88;100.00;99800.25;5034144;28;20049;-81
2022/02/06 00:26:42;;;;;;;1999.90;999.90;;;;;;;3.87;100.00;99805.91;5045241;28;20056;-82
2022/02/06 00:29:19;;;;;;;1999.90;999.90;;;;;;;3.85;100.00;99798.09;5027450;28;20432;-81
2022/02/06 00:31:58;;;;;;;1999.90;999.90;;;;;;;3.93;100.00;99791.41;5032020;28;20390;-83
2022/02/06 00:34:49;;;;;;;1999.90;999.90;;;;;;;3.83;100.00;99784.06;5031827;28;20049;-81
2022/02/06 00:40:10;;;;;;;1999.90;999.90;;;;;;;3.86;100.00;99780.84;5033903;28;20049;-82
2022/02/06 00:42:43;;;;;;;1999.90;999.90;;;;;;;3.91;100.00;99775.50;5021885;28;20057;-80
2022/02/06 00:45:13;;;;;;;1999.90;999.90;;;;;;;3.93;100.00;99772.56;5038000;28;20041;-81
2022/02/06 00:47:46;;;;;;;1999.90;999.90;;;;;;;3.89;100.00;99757.97;5034522;28;20409;-80
2022/02/06 00:50:14;;;;;;;1999.90;999.90;;;;;;;3.96;100.00;99758.56;5051737;28;20529;-81
2022/02/06 00:52:52;;;;;;;1999.90;999.90;;;;;;;3.90;100.00;99746.97;5024752;28;20052;-82
2022/02/06 00:55:26;;;;;;;1999.90;999.90;;;;;;;3.90;100.00;99744.25;5034305;28;20052;-82
2022/02/06 00:57:54;;;;;;;1999.90;999.90;;;;;;;3.92;100.00;99750.22;5028330;28;20050;-81
2022/02/06 01:00:28;;;;;;;1999.90;999.90;;;;;;;3.86;100.00;99731.59;5033107;28;20049;-83
2022/02/06 01:02:57;;;;;;;1999.90;999.90;;;;;;;3.94;100.00;99746.47;5023967;28;20054;-80
2022/02/06 01:05:25;;;;;;;1999.90;999.90;;;;;;;3.94;100.00;99736.50;5062320;28;20053;-81
2022/02/06 01:07:54;;;;;;;1999.90;999.90;;;;;;;3.99;100.00;99730.31;5034811;28;20060;-80
2022/02/06 01:10:28;;;;;;;1999.90;999.90;;;;;;;3.97;100.00;99721.72;5031727;28;20508;-81
2022/02/06 01:13:14;;;;;;;1999.90;999.90;;;;;;;3.98;100.00;99716.06;5027477;28;20049;-81
2022/02/06 01:15:50;;;;;;;1999.90;999.90;;;;;;;4.08;100.00;99720.69;5024277;28;20053;-81
2022/02/06 01:18:29;;;;;;;1999.90;999.90;;;;;;;4.03;100.00;99715.28;5025977;28;20049;-80
2022/02/06 01:21:04;;;;;;;1999.90;999.90;;;;;;;4.06;100.00;99703.97;5027067;28;20053;-82
2022/02/06 01:23:42;;;;;;;1999.90;999.90;;;;;;;4.07;100.00;99692.13;5068343;28;20053;-82
2022/02/06 01:26:25;;;;;;;1999.90;999.90;;;;;;;4.05;100.00;99700.47;5042460;28;20056;-81
2022/02/06 01:29:09;;;;;;;1999.90;999.90;;;;;;;4.03;100.00;99694.56;5029958;28;20052;-82
2022/02/06 01:31:54;;;;;;;1999.90;999.90;;;;;;;4.13;100.00;99674.97;5045267;28;20049;-81
2022/02/06 01:34:36;;;;;;;1999.90;999.90;;;;;;;4.11;100.00;99668.22;5033366;28;20052;-81
2022/02/06 01:37:11;;;;;;;1999.90;999.90;;;;;;;4.14;100.00;99665.78;5047157;28;20057;-82
2022/02/06 01:39:56;;;;;;;1999.90;999.90;;;;;;;4.06;100.00;99648.25;5018683;28;20041;-83
2022/02/06 01:42:35;;;;;;;1999.90;999.90;;;;;;;4.12;100.00;99651.00;5031850;28;20488;-82
2022/02/06 01:45:27;;;;;;;1999.90;999.90;;;;;;;4.07;100.00;99635.59;5034670;28;20061;-80
2022/02/06 02:02:46;;;;;;;1999.90;999.90;;;;;;;4.22;100.00;99597.97;5034576;28;20045;-80
2022/02/06 02:25:17;;;;;;;1999.90;999.90;;;;;;;4.28;100.00;99530.66;5026523;28;20045;-81
2022/02/06 02:28:04;;;;;;;1999.90;999.90;;;;;;;4.38;100.00;99538.78;5030326;28;20046;-82
2022/02/06 02:30:55;;;;;;;;;;;;;;;4.38;100.00;99538.78;5028274;28;20045;-79
2022/02/06 02:45:09;;;;;;;1999.90;999.90;;;;;;;4.42;100.00;99505.63;5033410;28;20041;-81
2022/02/06 02:47:47;;;;;;;1999.90;999.90;;;;;;;4.43;100.00;99504.56;5032897;28;20405;-81
2022/02/06 02:50:23;;;;;;;1999.90;999.90;;;;;;;4.45;100.00;99503.47;5032190;28;20056;-82
2022/02/06 02:53:02;;;;;;;1999.90;999.90;;;;;;;4.48;100.00;99497.56;5012725;28;20058;-81
2022/02/06 02:55:49;;;;;;;1999.90;999.90;;;;;;;4.42;100.00;99472.50;5038433;28;20046;-80
2022/02/06 02:58:31;;;;;;;1999.90;999.90;;;;;;;4.51;100.00;99487.03;5030172;28;20077;-82
2022/02/06 03:01:06;;;;;;;1999.90;999.90;;;;;;;4.46;100.00;99491.63;5033568;28;20049;-82
2022/02/06 03:03:41;;;;;;;1999.90;999.90;;;;;;;4.48;100.00;99484.09;5029448;28;20049;-81
2022/02/06 03:06:14;;;;;;;1999.90;999.90;;;;;;;4.49;100.00;99477.59;5021353;28;20050;-82
2022/02/06 03:08:49;;;;;;;1999.90;999.90;;;;;;;4.45;100.00;99463.88;5029697;28;20046;-81
2022/02/06 03:11:23;;;;;;;1999.90;999.90;;;;;;;4.45;100.00;99450.41;5031596;28;20433;-81
2022/02/06 03:14:03;;;;;;;1999.90;999.90;;;;;;;4.46;100.00;99457.44;5026906;28;20056;-81
2022/02/06 03:16:43;;;;;;;1999.90;999.90;;;;;;;4.52;100.00;99458.22;5023724;28;20050;-82
2022/02/06 03:19:18;;;;;;;1999.90;999.90;;;;;;;4.51;100.00;99443.94;5031811;28;20041;-81
2022/02/06 03:21:52;;;;;;;1999.90;999.90;;;;;;;4.53;100.00;99433.72;5030171;28;20045;-80
2022/02/06 03:24:28;;;;;;;1999.90;999.90;;;;;;;4.56;100.00;99435.06;5033849;28;20060;-81
2022/02/06 03:27:03;;;;;;;1999.90;999.90;;;;;;;4.59;100.00;99427.22;5030088;28;20525;-82
2022/02/06 03:29:36;;;;;;;1999.90;999.90;;;;;;;4.50;100.00;99417.25;5036291;28;20074;-82
2022/02/06 03:32:05;;;;;;;1999.90;999.90;;;;;;;4.57;100.00;99409.72;5065704;28;20050;-82
2022/02/06 03:34:38;;;;;;;1999.90;999.90;;;;;;;4.62;100.00;99409.72;5032743;28;20053;-82
2022/02/06 03:37:12;;;;;;;1999.90;999.90;;;;;;;4.65;100.00;99400.28;5031940;28;20056;-82
2022/02/06 03:39:50;;;;;;;1999.90;999.90;;;;;;;4.60;100.00;99411.88;5034020;28;20398;-82
2022/02/06 03:42:32;;;;;;;1999.90;999.90;;;;;;;4.60;100.00;99403.81;5033330;28;20053;-81
2022/02/06 03:45:05;;;;;;;1999.90;999.90;;;;;;;4.76;100.00;99394.63;5044988;28;20060;-81
2022/02/06 03:47:49;;;;;;;1999.90;999.90;;;;;;;4.78;100.00;99394.34;5032908;28;20041;-81
2022/02/06 03:50:32;;;;;;;1999.90;999.90;;;;;;;4.77;100.00;99381.94;5033946;28;20044;-81
2022/02/06 03:53:05;;;;;;;1999.90;999.90;;;;;;;4.74;100.00;99387.88;5033323;28;20042;-81
2022/02/06 03:55:34;;;;;;;1999.90;999.90;;;;;;;4.73;100.00;99378.97;5034402;28;20424;-81
2022/02/06 03:58:04;;;;;;;1999.90;999.90;;;;;;;4.76;100.00;99374.91;5039419;28;20049;-82
2022/02/06 04:00:37;;;;;;;1999.90;999.90;;;;;;;4.79;100.00;99370.88;5028350;28;20049;-81
2022/02/06 04:03:11;;;;;;;1999.90;999.90;;;;;;;4.79;100.00;99363.59;5023768;28;20088;-81
2022/02/06 04:05:45;;;;;;;1999.90;999.90;;;;;;;4.77;100.00;99358.47;5030750;28;20059;-81
2022/02/06 04:08:19;;;;;;;1999.90;999.90;;;;;;;4.81;100.00;99358.75;5034857;28;20057;-82
2022/02/06 04:10:53;;;;;;;1999.90;999.90;;;;;;;4.87;100.00;99356.84;5036097;28;20040;-82
2022/02/06 04:13:27;;;;;;;1999.90;999.90;;;;;;;4.84;100.00;99355.50;5031538;28;20053;-82
2022/02/06 04:16:05;;;;;;;1999.90;999.90;;;;;;;4.86;100.00;99356.03;5027225;28;20049;-81
2022/02/06 04:18:46;;;;;;;1999.90;999.90;;;;;;;4.91;100.00;99344.41;5031507;28;20053;-80
2022/02/06 04:21:22;;;;;;;1999.90;999.90;;;;;;;4.85;100.00;99345.53;5037129;28;20511;-82
2022/02/06 04:23:55;;;;;;;1999.90;999.90;;;;;;;4.89;100.00;99350.09;5033121;28;20065;-82
2022/02/06 04:26:28;;;;;;;1999.90;999.90;;;;;;;4.92;100.00;99346.84;5035952;28;20049;-82
2022/02/06 04:29:04;;;;;;;1999.90;999.90;;;;;;;4.93;100.00;99339.59;5021066;28;20052;-81
2022/02/06 04:31:40;;;;;;;1999.90;999.90;;;;;;;4.94;100.00;99333.09;5036740;28;20108;-82
2022/02/06 04:34:14;;;;;;;1999.90;999.90;;;;;;;4.89;100.00;99320.44;5035075;28;20045;-81
2022/02/06 04:36:50;;;;;;;1999.90;999.90;;;;;;;4.96;100.00;99306.66;5035596;28;20050;-80
2022/02/06 04:39:50;;;;;;;1999.90;999.90;;;;;;;5.00;100.00;99298.81;5032002;28;20048;-80
2022/02/06 04:42:34;;;;;;;1999.90;999.90;;;;;;;4.91;100.00;99303.97;5030079;28;20049;-81
2022/02/06 04:45:35;;;;;;;1999.90;999.90;;;;;;;4.92;100.00;99302.91;5047377;28;20064;-82
2022/02/06 04:51:30;;;;;;;1999.90;999.90;;;;;;;4.86;100.00;99285.13;5015280;28;20517;-82
2022/02/06 04:54:27;;;;;;;1999.90;999.90;;;;;;;4.95;100.00;99296.97;5028082;28;20041;-83
2022/02/06 05:11:51;;;;;;;1999.90;999.90;;;;;;;4.99;100.00;99257.56;5010204;28;20057;-82
2022/02/06 05:14:41;;;;;;;1999.90;999.90;;;;;;;5.00;100.00;99255.69;5035215;28;20519;-81
2022/02/06 05:17:36;;;;;;;1999.90;999.90;;;;;;;5.09;100.00;99248.63;5034320;28;20049;-81
2022/02/06 05:20:46;;;;;;;1999.90;999.90;;;;;;;5.06;100.00;99246.50;5026889;28;20049;-81
2022/02/06 05:23:38;;;;;;;1999.90;999.90;;;;;;;5.02;100.00;99245.44;5040512;28;20052;-82
2022/02/06 05:26:34;;;;;;;1999.90;999.90;;;;;;;5.10;100.00;99245.66;5030246;28;20057;-82
2022/02/06 05:29:18;;;;;;;1999.90;999.90;;;;;;;5.13;100.00;99241.59;5028957;28;20052;-81
2022/02/06 05:31:58;;;;;;;1999.90;999.90;;;;;;;5.13;100.00;99244.28;5035077;28;20053;-82
2022/02/06 05:34:31;;;;;;;1999.90;999.90;;;;;;;5.14;100.00;99234.28;5024771;28;20053;-81
2022/02/06 05:37:06;;;;;;;1999.90;999.90;;;;;;;5.09;100.00;99229.75;5033168;28;20504;-82
2022/02/06 05:39:39;;;;;;;1999.90;999.90;;;;;;;5.19;100.00;99242.38;5024244;28;20049;-82
2022/02/06 05:42:12;;;;;;;1999.90;999.90;;;;;;;5.22;100.00;99237.22;5031566;28;20050;-82
2022/02/06 05:44:52;;;;;;;1999.90;999.90;;;;;;;5.18;100.00;99236.19;5029149;28;20058;-82
2022/02/06 05:47:26;;;;;;;1999.90;999.90;;;;;;;5.21;100.00;99240.22;5029780;28;20057;-81
2022/02/06 05:49:56;;;;;;;1999.90;999.90;;;;;;;5.25;100.00;99225.06;5027593;28;20045;-82
2022/02/06 05:52:26;;;;;;;1999.90;999.90;;;;;;;5.24;100.00;99213.47;5050043;28;20049;-81
2022/02/06 05:55:00;;;;;;;1999.90;999.90;;;;;;;5.28;100.00;99230.69;5029915;28;20041;-81
2022/02/06 05:57:34;;;;;;;1999.90;999.90;;;;;;;5.20;100.00;99217.81;5037647;28;20052;-82
2022/02/06 06:00:02;;;;;;;1999.90;999.90;;;;;;;5.47;100.00;99230.03;5037475;28;20534;-81
2022/02/06 06:02:41;;;;;;;1999.90;999.90;;;;;;;5.45;100.00;99233.03;5035025;28;20525;-82
2022/02/06 06:05:09;;;;;;;1999.90;999.90;;;;;;;5.51;100.00;99227.56;5033928;28;20038;-82
2022/02/06 06:07:44;;;;;;;1999.90;999.90;;;;;;;5.51;100.00;99224.88;5045173;28;20494;-82
2022/02/06 06:10:17;;;;;;;1999.90;999.90;;;;;;;5.48;100.00;99223.53;5031007;28;20058;-81
2022/02/06 06:12:50;;;;;;;1999.90;999.90;;;;;;;5.42;100.00;99225.47;5031182;28;20060;-82
2022/02/06 06:15:24;;;;;;;1999.90;999.90;;;;;;;5.47;100.00;99237.31;5031670;28;20052;-82
2022/02/06 06:18:02;;;;;;;1999.90;999.90;;;;;;;5.51;100.00;99230.28;5027487;28;20057;-81
2022/02/06 06:20:34;;;;;;;1999.90;999.90;;;;;;;5.48;100.00;99226.25;5022055;28;20072;-82
2022/02/06 06:23:09;;;;;;;1999.90;999.90;;;;;;;5.47;100.00;99221.13;5030161;28;20452;-82
2022/02/06 06:25:37;;;;;;;1999.90;999.90;;;;;;;5.47;100.00;99229.22;5040695;28;20495;-82
2022/02/06 06:28:06;;;;;;;1999.90;999.90;;;;;;;5.45;100.00;99221.41;5033751;28;20049;-82
2022/02/06 06:30:40;;;;;;;1999.90;999.90;;;;;;;5.44;100.00;99203.59;5038983;28;20049;-81
2022/02/06 06:33:08;;;;;;;1999.90;999.90;;;;;;;5.39;100.00;99217.16;5032062;28;20045;-82
2022/02/06 06:35:42;;;;;;;1999.90;999.90;;;;;;;5.42;100.00;99197.69;5029789;28;20056;-81
2022/02/06 06:38:16;;;;;;;1999.90;999.90;;;;;;;5.40;100.00;99205.25;5033584;28;20049;-81
2022/02/06 06:40:50;;;;;;;1999.90;999.90;;;;;;;5.42;100.00;99206.59;5028693;28;20046;-81
2022/02/06 06:43:23;;;;;;;1999.90;999.90;;;;;;;5.42;100.00;99203.09;5033766;28;20064;-81
2022/02/06 06:45:57;;;;;;;1999.90;999.90;;;;;;;5.41;100.00;99196.91;5030711;28;20065;-81
2022/02/06 06:48:30;;;;;;;1999.90;999.90;;;;;;;5.45;100.00;99199.81;5033708;28;20045;-80
2022/02/06 06:51:03;;;;;;;1999.90;999.90;;;;;;;5.43;100.00;99191.22;5037278;28;20045;-81
2022/02/06 06:53:41;;;;;;;1999.90;999.90;;;;;;;5.38;100.00;99188.56;5030371;28;20049;-81
2022/02/06 06:56:15;;;;;;;1999.90;999.90;;;;;;;5.35;100.00;99195.31;5025588;28;20049;-81
2022/02/06 06:58:49;;;;;;;1999.90;999.90;;;;;;;5.34;100.00;99192.91;5027287;28;20053;-80
2022/02/06 07:01:43;;;;;;;1999.90;999.90;;;;;;;5.34;100.00;99185.59;5033451;28;20124;-82
2022/02/06 07:04:16;;;;;;;1999.90;999.90;;;;;;;5.41;100.00;99178.03;5037589;28;20049;-81
2022/02/06 07:06:45;;;;;;;1999.90;999.90;;;;;;;5.38;100.00;99186.66;5036413;28;20049;-82
2022/02/06 07:09:19;;;;;;;1999.90;999.90;;;;;;;5.61;100.00;99185.13;5033215;28;20120;-81
2022/02/06 07:11:52;;;;;;;1999.90;999.90;;;;;;;5.60;100.00;99182.72;5035817;28;20045;-81
2022/02/06 07:14:26;;;;;;;1999.90;999.90;;;;;;;5.59;100.00;99184.63;5038456;28;20042;-82
2022/02/06 07:16:54;;;;;;;1999.90;999.90;;;;;;;5.57;100.00;99167.09;5036864;28;20061;-81
2022/02/06 07:19:27;;;;;;;1999.90;999.90;;;;;;;5.52;100.00;99183.31;5048455;28;20049;-81
2022/02/06 07:22:00;;;;;;;1999.90;999.90;;;;;;;5.44;100.00;99165.84;5034452;28;20072;-82
2022/02/06 07:24:36;;;;;;;1999.90;999.90;;;;;;;5.57;100.00;99189.47;5042860;28;20049;-82
2022/02/06 07:27:19;;;;;;;1999.90;999.90;;;;;;;5.53;100.00;99185.72;5027213;28;20049;-81
2022/02/06 07:29:53;;;;;;;1999.90;999.90;;;;;;;5.52;100.00;99196.81;5032390;28;20053;-81
2022/02/06 07:32:27;;;;;;;1999.90;999.90;;;;;;;5.44;100.00;99180.16;5052297;28;20092;-81
2022/02/06 07:35:00;;;;;;;1999.90;999.90;;;;;;;5.45;100.00;99186.34;5033269;28;20272;-82
2022/02/06 07:37:33;;;;;;;1999.90;999.90;;;;;;;5.39;100.00;99182.88;5042219;28;20040;-81
2022/02/06 07:40:09;;;;;;;1999.90;999.90;;;;;;;5.39;100.00;99179.38;5036878;28;20049;-81
2022/02/06 07:42:43;;;;;;;1999.90;999.90;;;;;;;5.32;100.00;99174.31;5033086;28;20052;-81
2022/02/06 07:45:23;;;;;;;1999.90;999.90;;;;;;;5.27;100.00;99188.66;5036546;28;20049;-81
2022/02/06 07:47:57;;;;;;;1999.90;999.90;;;;;;;5.32;100.00;99189.66;5034260;28;20111;-81
2022/02/06 07:50:30;;;;;;;1999.90;999.90;;;;;;;5.25;100.00;99184.63;5037502;28;20041;-81
2022/02/06 07:53:03;;;;;;;1999.90;999.90;;;;;;;5.18;100.00;99166.06;5033809;28;20053;-81
2022/02/06 07:55:32;;;;;;;1999.90;999.90;;;;;;;5.13;100.00;99179.56;5031952;28;20053;-81
2022/02/06 07:58:00;;;;;;;1999.90;999.90;;;;;;;5.08;100.00;99174.19;5035303;28;20045;-81
2022/02/06 08:00:34;;;;;;;1999.90;999.90;;;;;;;5.08;100.00;99184.97;5033316;28;20037;-81
2022/02/06 08:03:10;;;;;;;1999.90;999.90;;;;;;;5.10;100.00;99178.22;5022009;28;20042;-81
2022/02/06 08:05:43;;;;;;;1999.90;999.90;;;;;;;5.00;100.00;99167.53;5035906;28;20060;-81
2022/02/06 08:08:16;;;;;;;1999.90;999.90;;;;;;;5.03;100.00;99166.97;5036337;28;20065;-81
2022/02/06 08:10:57;;;;;;;1999.90;999.90;;;;;;;5.02;100.00;99151.88;5041864;28;20054;-81
2022/02/06 08:13:39;;;;;;;1999.90;999.90;;;;;;;5.07;100.00;99149.13;5026407;28;20041;-81
2022/02/06 08:16:14;;;;;;;1999.90;999.90;;;;;;;5.05;100.00;99151.28;5032877;28;20520;-81
2022/02/06 08:18:42;;;;;;;1999.90;999.90;;;;;;;5.05;100.00;99151.28;5035255;28;20509;-81
2022/02/06 08:21:16;;;;;;;1999.90;999.90;;;;;;;4.96;100.00;99138.69;5033132;28;20041;-80
2022/02/06 08:23:49;;;;;;;1999.90;999.90;;;;;;;5.09;100.00;99143.47;5039588;28;20045;-81
2022/02/06 08:26:25;;;;;;;1999.90;999.90;;;;;;;5.02;100.00;99137.59;5037261;28;20041;-80
2022/02/06 08:28:59;;;;;;;1999.90;999.90;;;;;;;5.05;100.00;99135.13;5066167;28;20049;-81
2022/02/06 08:31:32;;;;;;;1999.90;999.90;;;;;;;5.07;100.00;99121.38;5033294;28;20056;-81
2022/02/06 08:34:01;;;;;;;1999.90;999.90;;;;;;;5.03;100.00;99114.94;5038541;28;20418;-81
2022/02/06 08:36:29;;;;;;;1999.90;999.90;;;;;;;5.00;100.00;99115.47;5033512;28;20053;-81
2022/02/06 08:39:03;;;;;;;1999.90;999.90;;;;;;;5.02;100.00;99108.72;5036204;28;20049;-81
2022/02/06 08:41:33;;;;;;;1999.90;999.90;;;;;;;4.99;100.00;99103.09;5033770;28;20044;-80
2022/02/06 08:44:02;;;;;;;1999.90;999.90;;;;;;;4.90;100.00;99092.09;5036417;28;20045;-80
2022/02/06 08:46:35;;;;;;;1999.90;999.90;;;;;;;4.91;100.00;99091.81;5044001;28;20045;-80
2022/02/06 08:49:08;;;;;;;1999.90;999.90;;;;;;;4.83;100.00;99088.94;5044983;28;20056;-81
2022/02/06 08:51:41;;;;;;;1999.90;999.90;;;;;;;4.88;100.00;99076.22;5056963;28;20040;-80
2022/02/06 08:54:10;;;;;;;1999.90;999.90;;;;;;;4.83;100.00;99084.31;5034250;28;20056;-80
2022/02/06 08:56:45;;;;;;;1999.90;999.90;;;;;;;4.86;100.00;99072.19;5035951;28;20061;-80
2022/02/06 08:59:13;;;;;;;1999.90;999.90;;;;;;;4.99;100.00;99074.25;5030300;28;20056;-80
2022/02/06 09:01:46;;;;;;;1999.90;999.90;;;;;;;4.90;100.00;99068.66;5022986;28;20050;-80
2022/02/06 09:04:19;;;;;;;1999.90;999.90;;;;;;;4.87;100.00;99071.09;5031958;28;20044;-80
2022/02/06 09:06:54;;;;;;;1999.90;999.90;;;;;;;4.88;100.00;99061.94;5025871;28;20422;-81
2022/02/06 09:09:28;;;;;;;1999.90;999.90;;;;;;;4.86;100.00;99051.44;5033207;28;20054;-80
2022/02/06 09:12:03;;;;;;;1999.90;999.90;;;;;;;4.90;100.00;99052.50;5033416;28;20046;-79
2022/02/06 09:14:37;;;;;;;1999.90;999.90;;;;;;;4.85;100.00;99043.66;5037031;28;20052;-80
2022/02/06 09:17:06;;;;;;;1999.90;999.90;;;;;;;4.92;100.00;99039.53;5027311;28;20434;-80
2022/02/06 09:19:36;;;;;;;1999.90;999.90;;;;;;;4.80;100.00;99028.28;5041113;28;20414;-81
2022/02/06 09:22:05;;;;;;;1999.90;999.90;;;;;;;4.84;100.00;99015.88;5036901;28;20413;-80
2022/02/06 09:24:38;;;;;;;1999.90;999.90;;;;;;;4.91;100.00;99027.13;5031600;28;20053;-78
2022/02/06 09:27:09;;;;;;;1999.90;999.90;;;;;;;4.91;100.00;99021.72;5030985;28;20056;-79
2022/02/06 09:29:42;;;;;;;1999.90;999.90;;;;;;;4.80;100.00;99016.72;5016528;28;20053;-79
2022/02/06 09:37:16;;;;;;;1999.90;999.90;;;;;;;4.81;100.00;99010.25;5015941;28;20038;-78
2022/02/06 09:39:49;;;;;;;1999.90;999.90;;;;;;;4.84;100.00;99015.88;5017172;28;20068;-80
2022/02/06 09:42:26;;;;;;;1999.90;999.90;;;;;;;4.83;100.00;99022.34;5016517;28;20069;-80
2022/02/06 09:45:00;;;;;;;1999.90;999.90;;;;;;;4.85;100.00;99014.00;5013428;28;20068;-79
2022/02/06 09:47:33;;;;;;;1999.90;999.90;;;;;;;4.91;100.00;99013.63;5012808;28;20065;-79
2022/02/06 09:50:07;;;;;;;1999.90;999.90;;;;;;;4.89;100.00;99005.03;5012972;28;20057;-79
2022/02/06 09:52:41;;;;;;;1999.90;999.90;;;;;;;4.89;100.00;98999.66;5016320;28;20513;-80
2022/02/06 09:55:17;;;;;;;1999.90;999.90;;;;;;;4.87;100.00;98996.44;5018745;28;20061;-80
2022/02/06 09:57:55;;;;;;;1999.90;999.90;;;;;;;4.94;100.00;98980.75;5019073;28;20053;-79
2022/02/06 10:00:30;;;;;;;1999.90;999.90;;;;;;;5.10;100.00;98978.69;5020239;28;20798;-78
2022/02/06 10:03:08;;;;;;;1999.90;999.90;;;;;;;5.08;100.00;98951.22;5016598;28;20440;-79
2022/02/06 10:05:40;;;;;;;1999.90;999.90;;;;;;;5.20;100.00;98964.28;5012444;28;20060;-79
2022/02/06 10:08:24;;;;;;;1999.90;999.90;;;;;;;5.20;100.00;98942.72;5015070;28;20054;-79
2022/02/06 10:11:03;;;;;;;1999.90;999.90;;;;;;;5.16;100.00;98943.59;5013872;28;20056;-78
2022/02/06 10:13:39;;;;;;;1999.90;999.90;;;;;;;5.23;100.00;98938.66;5031527;28;20057;-80
2022/02/06 10:16:15;;;;;;;1999.90;999.90;;;;;;;5.21;100.00;98938.94;5016742;28;20041;-80
2022/02/06 10:18:48;;;;;;;1999.90;999.90;;;;;;;5.22;100.00;98935.16;5014871;28;20064;-79
2022/02/06 10:21:21;;;;;;;1999.90;999.90;;;;;;;5.22;100.00;98923.56;5015695;28;20414;-79
2022/02/06 10:24:00;;;;;;;;;;;;;;;5.18;100.00;98909.84;5014538;28;21246;-79
2022/02/06 10:26:37;;;;;;;1999.90;999.90;;;;;;;5.16;100.00;98906.63;5012468;28;19929;-80
2022/02/06 10:29:37;;;;;;;1999.90;999.90;;;;;;;5.18;100.00;98893.69;5014496;28;20068;-79
2022/02/06 10:32:17;;;;;;;1999.90;999.90;;;;;;;5.24;100.00;98884.41;5020832;28;20144;-80
2022/02/06 10:34:50;;;;;;;1999.90;999.90;;;;;;;5.11;100.00;98888.63;5024522;28;20050;-79
2022/02/06 10:37:25;;;;;;;1999.90;999.90;;;;;;;5.07;100.00;98882.19;5028970;28;20049;-79
2022/02/06 10:40:02;;;;;;;1999.90;999.90;;;;;;;5.07;100.00;98871.41;5028175;28;20054;-80
2022/02/06 10:42:33;;;;;;;1999.90;999.90;;;;;;;5.03;100.00;98866.91;5012231;28;20068;-79
2022/02/06 10:45:17;;;;;;;1999.90;999.90;;;;;;;5.08;100.00;98864.13;5015767;28;20071;-80
2022/02/06 10:47:52;;;;;;;1999.90;999.90;;;;;;;5.03;100.00;98859.59;5012614;28;20061;-80
2022/02/06 10:50:28;;;;;;;1999.90;999.90;;;;;;;5.01;100.00;98859.06;5017329;28;20521;-80
2022/02/06 10:53:07;;;;;;;1999.90;999.90;;;;;;;5.09;100.00;98857.63;5016835;28;20054;-79
2022/02/06 10:55:52;;;;;;;1999.90;999.90;;;;;;;5.10;100.00;98835.00;5015662;28;20053;-79
2022/02/06 10:58:29;;;;;;;1999.90;999.90;;;;;;;5.02;100.00;98822.16;5014023;28;20049;-79
2022/02/06 11:01:09;;;;;;;1999.90;999.90;;;;;;;5.08;100.00;98812.88;5014859;28;20053;-79
2022/02/06 11:03:45;;;;;;;1999.90;999.90;;;;;;;5.10;100.00;98802.63;5014377;28;20054;-79
2022/02/06 11:06:42;;;;;;;1999.90;999.90;;;;;;;4.94;100.00;98781.25;5029226;28;20502;-80
2022/02/06 11:09:26;;;;;;;1999.90;999.90;;;;;;;4.95;100.00;98779.34;5013184;28;20060;-79
2022/02/06 11:12:00;;;;;;;1999.90;999.90;;;;;;;4.98;100.00;98765.28;5013818;28;20057;-80
2022/02/06 11:14:35;;;;;;;1999.90;999.90;;;;;;;4.97;100.00;98746.72;5012635;28;20050;-80
2022/02/06 11:17:18;;;;;;;1999.90;999.90;;;;;;;5.04;100.00;98749.84;5017701;28;20046;-80
2022/02/06 11:20:06;;;;;;;1999.90;999.90;;;;;;;5.02;100.00;98739.38;5013906;28;21387;-80
2022/02/06 11:22:53;;;;;;;;;;;;;;;4.98;100.00;98732.94;5014620;28;20054;-80
2022/02/06 11:25:22;;;;;;;1999.90;999.90;;;;;;;4.87;100.00;98712.63;5015207;28;20555;-80
2022/02/06 11:27:56;;;;;;;1999.90;999.90;;;;;;;4.92;100.00;98717.94;5016377;28;20060;-79
2022/02/06 11:30:29;;;;;;;1999.90;999.90;;;;;;;4.98;100.00;98711.38;5013356;28;20057;-85
2022/02/06 11:33:05;;;;;;;1999.90;999.90;;;;;;;4.98;100.00;98700.59;5016471;28;20053;-80
2022/02/06 11:35:42;;;;;;;1999.90;999.90;;;;;;;5.01;100.00;98694.63;5017628;28;20050;-80
2022/02/06 11:44:27;;;;;;;1999.90;999.90;;;;;;;4.90;100.00;98655.44;5017558;28;20057;-81
2022/02/06 11:47:14;;;;;;;1999.90;999.90;;;;;;;4.95;100.00;98660.75;5015206;28;20053;-80
2022/02/06 11:49:51;;;;;;;1999.90;999.90;;;;;;;4.94;100.00;98678.84;5015689;28;20057;-81
2022/02/06 11:52:19;;;;;;;1999.90;999.90;;;;;;;4.89;100.00;98643.06;5015454;28;20049;-80
2022/02/06 11:54:49;;;;;;;1999.90;999.90;;;;;;;4.70;100.00;98662.72;5013452;28;20064;-81
2022/02/06 11:57:25;;;;;;;1999.90;999.90;;;;;;;4.57;100.00;98658.03;5012710;28;20060;-80
2022/02/06 12:00:20;;;;;;;1999.90;999.90;;;;;;;4.38;100.00;98650.75;5013850;28;20064;-80
2022/02/06 12:02:53;;;;;;;1999.90;999.90;;;;;;;4.17;100.00;98644.81;5022648;28;20064;-80
2022/02/06 12:05:26;;;;;;;1999.90;999.90;;;;;;;4.22;100.00;98635.84;5016844;28;20057;-80
2022/02/06 12:08:07;;;;;;;1999.90;999.90;;;;;;;4.12;100.00;98627.91;5014923;28;20411;-80
2022/02/06 12:11:16;;;;;;;1999.90;999.90;;;;;;;4.09;100.00;98629.28;5012643;28;20417;-80
2022/02/06 12:14:09;;;;;;;1999.90;999.90;;;;;;;4.05;100.00;98614.81;5017694;28;20065;-80
2022/02/06 12:16:49;;;;;;;1999.90;999.90;;;;;;;4.05;100.00;98609.41;5015356;28;20045;-80
2022/02/06 12:19:27;;;;;;;1999.90;999.90;;;;;;;4.13;100.00;98597.19;5019362;28;20049;-80
2022/02/06 12:22:39;;;;;;;1999.90;999.90;;;;;;;4.03;100.00;98593.56;5016570;28;20057;-80
2022/02/06 12:25:23;;;;;;;1999.90;999.90;;;;;;;3.91;100.00;98577.81;5018775;28;20041;-79
2022/02/06 12:27:52;;;;;;;1999.90;999.90;;;;;;;3.81;100.00;98580.63;5012629;28;20053;-79
2022/02/06 12:30:31;;;;;;;1999.90;999.90;;;;;;;3.78;100.00;98581.19;5010272;28;20076;-80
2022/02/06 12:33:23;;;;;;;1999.90;999.90;;;;;;;3.72;100.00;98576.97;5010460;28;20066;-80
2022/02/06 12:38:49;;;;;;;1999.90;999.90;;;;;;;3.74;100.00;98574.78;5016630;28;20401;-80
2022/02/06 12:41:27;;;;;;;1999.90;999.90;;;;;;;3.76;100.00;98564.53;5017185;28;20072;-79
2022/02/06 12:44:05;;;;;;;;;;;;;;;3.71;100.00;98560.00;5013105;28;20042;-79
2022/02/06 12:46:33;;;;;;;1999.90;999.90;;;;;;;3.66;100.00;98553.88;5044323;28;19929;-79
2022/02/06 12:49:06;;;;;;;1999.90;999.90;;;;;;;3.65;100.00;98549.63;5011523;28;20056;-80
2022/02/06 12:51:36;;;;;;;1999.90;999.90;;;;;;;3.72;100.00;98556.22;5013034;28;20151;-79
2022/02/06 12:54:12;;;;;;;1999.90;999.90;;;;;;;3.75;100.00;98546.78;5015924;28;20060;-79
2022/02/06 12:56:45;;;;;;;1999.90;999.90;;;;;;;3.77;100.00;98550.00;5014408;28;20735;-80